This is the latest recevied weather packets stored in our database for station/object SR3WXA. If no packets are shown the sender has not sent any weather packets the latest 1 day(s).
| Time | Temp. | Humidity | Pressure | Rain* | Wind** | Luminosity | Snow |
|---|---|---|---|---|---|---|---|
| 1778043514 | 11.11° C | 91% | 1004.7 hPa | 0 mm | - | 171 W/m² | - |
| 1778043214 | 11.11° C | 91% | 1005 hPa | 0 mm | - | 83 W/m² | - |
| 1778042614 | 10.56° C | 91% | 1005.2 hPa | 0 mm | - | 56 W/m² | - |
| 1778042190 | 10.56° C | 91% | 1005.2 hPa | 0 mm | - | 47 W/m² | - |
| 1778042142 | 10.56° C | 91% | 1005.2 hPa | 0 mm | - | 47 W/m² | - |
| 1778041879 | 10.56° C | 91% | 1005 hPa | 0 mm | - | 42 W/m² | - |
| 1778041842 | 10.56° C | 91% | 1005 hPa | 0 mm | - | 42 W/m² | - |
| 1778041542 | 10.56° C | 91% | 1005.1 hPa | 0 mm | - | 39 W/m² | - |
| 1778041242 | 10.56° C | 91% | 1005.2 hPa | 0 mm | - | 32 W/m² | - |
| 1778040942 | 10.56° C | 91% | 1005.3 hPa | 0 mm | - | 28 W/m² | - |
| 1778040643 | 10.56° C | 91% | 1005.3 hPa | 0 mm | - | 25 W/m² | - |
| 1778040342 | 10.56° C | 91% | 1005.4 hPa | 0 mm | - | 21 W/m² | - |
| 1778040075 | 10.56° C | 91% | 1005.4 hPa | 0 mm | - | 19 W/m² | - |
| 1778040042 | 10.56° C | 91% | 1005.4 hPa | 0 mm | - | 19 W/m² | - |
| 1778039779 | 10.56° C | 91% | 1005.5 hPa | 0 mm | - | 16 W/m² | - |
| 1778039742 | 10.56° C | 91% | 1005.5 hPa | 0 mm | - | 16 W/m² | - |
| 1778039150 | 10.56° C | 92% | 1005.5 hPa | 0 mm | - | 11 W/m² | - |
| 1778038850 | 10.56° C | 92% | 1005.5 hPa | 0 mm | - | 9 W/m² | - |
| 1778038550 | 10.56° C | 92% | 1005.6 hPa | 0 mm | - | 5 W/m² | - |
| 1778038250 | 10.56° C | 92% | 1005.7 hPa | 0 mm | - | 5 W/m² | - |
| 1778037982 | 10.56° C | 92% | 1005.8 hPa | 0 mm | - | 5 W/m² | - |
| 1778037950 | 10.56° C | 92% | 1005.8 hPa | 0 mm | - | 5 W/m² | - |
| 1778037650 | 10.56° C | 92% | 1005.7 hPa | 0 mm | - | 0 W/m² | - |
| 1778037384 | 10.56° C | 92% | 1005.8 hPa | 0 mm | - | 0 W/m² | - |
| 1778037350 | 10.56° C | 92% | 1005.8 hPa | 0 mm | - | 0 W/m² | - |
* Rain latest hour (hover to see other rain measurements)
** Current wind speed in m/s (hover to see current wind gust speed)